createdAt,value
2022-09-14T00:00:28.001Z,13.75
2022-09-14T00:03:12.049Z,9.27
2022-09-14T00:05:43.864Z,9.38
2022-09-14T00:08:18.511Z,11.30
2022-09-14T00:10:49.702Z,9.65
2022-09-14T00:13:21.433Z,14.70
2022-09-14T00:16:02.746Z,17.25
2022-09-14T00:18:33.740Z,11.38
2022-09-14T00:21:12.704Z,16.85
2022-09-14T00:23:43.292Z,13.75
2022-09-14T00:26:15.346Z,11.85
2022-09-14T00:31:16.092Z,7.82
2022-09-14T00:33:50.725Z,11.05
2022-09-14T00:36:24.045Z,9.18
2022-09-14T00:39:02.055Z,21.08
2022-09-14T00:45:19.695Z,18.55
2022-09-14T00:48:06.930Z,8.70
2022-09-14T00:56:41.400Z,16.55
2022-09-14T01:02:16.306Z,13.00
2022-09-14T01:04:51.524Z,11.13
2022-09-14T01:07:28.519Z,12.75
2022-09-14T01:10:05.443Z,10.35
2022-09-14T01:12:42.526Z,16.00
2022-09-14T01:15:21.850Z,16.23
2022-09-14T01:17:59.711Z,18.23
2022-09-14T01:20:41.653Z,12.27
2022-09-14T01:23:27.908Z,10.18
2022-09-14T01:26:43.793Z,13.70
2022-09-14T01:29:52.727Z,12.38
2022-09-14T01:33:07.071Z,17.25
2022-09-14T01:35:40.113Z,11.57
2022-09-14T01:38:12.437Z,10.88
2022-09-14T01:40:59.438Z,18.83
2022-09-14T01:43:36.806Z,12.82
2022-09-14T01:49:14.465Z,15.75
2022-09-14T01:52:12.852Z,15.65
2022-09-14T01:54:47.642Z,18.50
2022-09-14T01:57:23.938Z,14.13
2022-09-14T01:59:55.977Z,18.52
2022-09-14T02:02:33.159Z,12.40
2022-09-14T02:05:14.864Z,19.60
2022-09-14T02:07:44.339Z,16.33
2022-09-14T02:10:16.880Z,16.67
2022-09-14T02:12:45.617Z,13.95
2022-09-14T02:15:28.834Z,12.90
2022-09-14T02:18:15.832Z,19.67
2022-09-14T02:21:07.582Z,15.57
2022-09-14T02:23:37.638Z,23.67
2022-09-14T02:26:45.050Z,29.10
2022-09-14T02:29:16.874Z,18.08
2022-09-14T02:32:05.128Z,14.13
2022-09-14T02:34:54.281Z,31.33
2022-09-14T02:37:34.194Z,18.08
2022-09-14T02:43:39.685Z,14.43
2022-09-14T02:46:16.788Z,16.02
2022-09-14T02:49:01.337Z,18.48
2022-09-14T02:51:40.051Z,20.27
2022-09-14T03:00:04.017Z,15.95
2022-09-14T03:02:38.865Z,13.77
2022-09-14T03:05:25.548Z,16.70
2022-09-14T03:08:17.346Z,15.75
2022-09-14T03:10:53.224Z,18.35
2022-09-14T03:13:29.469Z,19.08
2022-09-14T03:16:44.436Z,15.68
2022-09-14T03:25:42.753Z,13.23
2022-09-14T03:31:31.751Z,17.83
2022-09-14T03:47:14.493Z,14.82
2022-09-14T03:56:22.170Z,31.20
2022-09-14T04:05:26.622Z,16.33
2022-09-14T04:07:57.654Z,18.90
2022-09-14T04:13:45.069Z,22.30
2022-09-14T04:16:38.377Z,20.00
2022-09-14T04:19:44.617Z,16.55
2022-09-14T04:26:12.843Z,17.42
2022-09-14T04:28:41.184Z,20.13
2022-09-14T04:31:13.497Z,13.48
2022-09-14T04:37:01.595Z,14.15
2022-09-14T04:39:58.557Z,17.10
2022-09-14T04:42:30.554Z,16.58
2022-09-14T04:45:15.382Z,11.25
2022-09-14T04:47:53.820Z,18.98
2022-09-14T04:50:24.967Z,10.80
2022-09-14T04:52:53.468Z,22.33
2022-09-14T04:55:24.388Z,16.10
2022-09-14T04:57:52.525Z,12.52
2022-09-14T05:00:30.921Z,18.35
2022-09-14T05:03:01.671Z,14.98
2022-09-14T05:05:29.894Z,18.23
2022-09-14T05:07:58.141Z,13.98
2022-09-14T05:10:29.766Z,21.70
2022-09-14T05:12:57.955Z,25.83
2022-09-14T05:15:26.280Z,20.65
2022-09-14T05:17:54.218Z,17.00
2022-09-14T05:20:22.504Z,16.65
2022-09-14T05:22:51.257Z,18.23
2022-09-14T05:25:19.567Z,19.08
2022-09-14T05:27:49.437Z,14.07
2022-09-14T05:30:17.791Z,16.10
2022-09-14T05:32:46.003Z,19.60
2022-09-14T05:35:15.466Z,16.90
2022-09-14T05:37:43.517Z,18.30
2022-09-14T05:40:13.380Z,16.73
2022-09-14T05:42:41.784Z,15.07
2022-09-14T05:45:12.087Z,16.38
2022-09-14T05:47:40.160Z,13.02
2022-09-14T05:50:09.441Z,17.50
2022-09-14T05:52:38.487Z,13.85
2022-09-14T05:55:07.127Z,14.38
2022-09-14T05:57:35.256Z,11.27
2022-09-14T06:00:04.868Z,13.18
2022-09-14T06:02:34.595Z,11.98
2022-09-14T06:05:02.633Z,11.98
2022-09-14T06:07:30.969Z,12.63
2022-09-14T06:09:58.967Z,15.25
2022-09-14T06:12:27.644Z,12.00
2022-09-14T06:14:55.613Z,8.10
2022-09-14T06:17:23.760Z,9.25
2022-09-14T06:19:53.149Z,9.63
2022-09-14T06:22:21.413Z,11.00
2022-09-14T06:24:49.497Z,11.75
2022-09-14T06:27:17.634Z,7.38
2022-09-14T06:29:45.600Z,7.07
2022-09-14T06:32:13.578Z,6.13
2022-09-14T06:34:41.842Z,7.07
2022-09-14T06:37:11.403Z,10.48
2022-09-14T06:39:39.556Z,9.20
2022-09-14T06:42:07.818Z,11.13
2022-09-14T06:44:35.942Z,9.20
2022-09-14T06:47:04.035Z,11.48
2022-09-14T06:49:32.292Z,8.95
2022-09-14T06:52:00.993Z,8.27
2022-09-14T06:54:30.430Z,6.57
2022-09-14T06:56:58.808Z,10.85
2022-09-14T06:59:27.172Z,8.13
2022-09-14T07:01:55.178Z,5.05
2022-09-14T07:04:24.988Z,8.32
2022-09-14T07:06:53.160Z,7.40
2022-09-14T07:09:22.469Z,10.85
2022-09-14T07:11:51.875Z,7.88
2022-09-14T07:14:21.138Z,13.15
2022-09-14T07:16:49.495Z,10.75
2022-09-14T07:19:17.698Z,11.48
2022-09-14T07:21:45.814Z,8.43
2022-09-14T07:24:14.821Z,11.15
2022-09-14T07:26:43.728Z,13.52
2022-09-14T07:29:16.067Z,14.13
2022-09-14T07:34:13.088Z,6.15
2022-09-14T07:36:44.629Z,7.63
2022-09-14T07:39:14.236Z,8.03
2022-09-14T07:41:43.341Z,16.35
2022-09-14T07:44:16.419Z,11.52
2022-09-14T07:46:45.586Z,12.43
2022-09-14T07:49:15.640Z,7.00
2022-09-14T07:51:44.088Z,8.98
2022-09-14T07:54:14.056Z,10.93
2022-09-14T07:56:43.445Z,8.52
2022-09-14T07:59:34.568Z,12.02
2022-09-14T08:02:02.385Z,10.68
2022-09-14T08:04:30.613Z,14.07
2022-09-14T08:06:59.087Z,11.43
2022-09-14T08:09:27.816Z,8.23
2022-09-14T08:11:57.206Z,9.30
2022-09-14T08:14:25.408Z,10.38
2022-09-14T08:16:53.853Z,7.35
2022-09-14T08:19:23.783Z,11.05
2022-09-14T08:21:52.318Z,7.43
2022-09-14T08:24:22.444Z,8.45
2022-09-14T08:26:50.866Z,10.85
2022-09-14T08:29:20.217Z,11.40
2022-09-14T08:31:51.915Z,6.80
2022-09-14T08:34:21.073Z,10.30
2022-09-14T08:36:50.893Z,7.20
2022-09-14T08:39:19.791Z,11.20
2022-09-14T08:41:53.770Z,9.07
2022-09-14T08:44:25.855Z,8.93
2022-09-14T08:46:59.230Z,12.13
2022-09-14T08:49:37.802Z,6.00
2022-09-14T08:52:13.588Z,8.50
2022-09-14T08:54:44.908Z,8.98
2022-09-14T08:57:20.451Z,8.93
2022-09-14T08:59:53.822Z,7.97
2022-09-14T09:02:29.917Z,9.48
2022-09-14T09:05:02.888Z,11.13
2022-09-14T09:07:35.887Z,7.15
2022-09-14T09:10:05.661Z,8.60
2022-09-14T09:12:38.302Z,8.50
2022-09-14T09:15:17.095Z,11.30
2022-09-14T09:17:47.290Z,13.35
2022-09-14T09:20:19.396Z,6.15
2022-09-14T09:25:56.610Z,15.32
2022-09-14T09:28:26.758Z,6.88
2022-09-14T09:30:55.755Z,11.50
2022-09-14T09:33:25.898Z,7.15
2022-09-14T09:35:55.584Z,9.57
2022-09-14T09:38:28.158Z,11.02
2022-09-14T09:40:58.747Z,7.88
2022-09-14T09:43:45.782Z,11.30
2022-09-14T09:46:16.628Z,7.05
2022-09-14T09:48:47.167Z,7.72
2022-09-14T09:51:20.888Z,6.63
2022-09-14T09:53:55.889Z,12.45
2022-09-14T09:56:37.921Z,7.15
2022-09-14T09:59:24.361Z,8.40
2022-09-14T10:01:55.773Z,7.90
2022-09-14T10:04:28.152Z,9.38
2022-09-14T10:09:29.089Z,5.50
2022-09-14T10:11:59.564Z,11.38
2022-09-14T10:14:31.398Z,9.02
2022-09-14T10:19:35.131Z,6.32
2022-09-14T10:22:24.271Z,7.45
2022-09-14T10:25:22.205Z,6.03
2022-09-14T10:27:59.104Z,10.60
2022-09-14T10:30:28.901Z,7.50
2022-09-14T10:33:00.546Z,10.13
2022-09-14T10:35:35.482Z,8.48
2022-09-14T10:38:12.190Z,16.70
2022-09-14T10:40:44.827Z,6.93
2022-09-14T10:43:17.204Z,7.72
2022-09-14T10:45:50.853Z,5.70
2022-09-14T10:48:30.976Z,6.68
2022-09-14T10:51:07.290Z,3.90
2022-09-14T10:53:44.541Z,7.68
2022-09-14T10:56:19.024Z,6.55
2022-09-14T10:59:04.762Z,6.22
2022-09-14T11:01:44.764Z,7.97
2022-09-14T11:04:24.414Z,8.93
2022-09-14T11:06:56.592Z,8.25
2022-09-14T11:12:04.845Z,6.38
2022-09-14T11:14:42.509Z,8.30
2022-09-14T11:17:22.986Z,8.00
2022-09-14T11:19:55.682Z,6.13
2022-09-14T11:22:32.220Z,8.82
2022-09-14T11:25:04.998Z,7.75
2022-09-14T11:27:39.058Z,5.20
2022-09-14T11:30:13.102Z,7.70
2022-09-14T11:32:44.727Z,5.32
2022-09-14T11:35:16.311Z,4.80
2022-09-14T11:37:48.222Z,6.15
2022-09-14T11:40:20.345Z,4.25
2022-09-14T11:42:57.147Z,7.95
2022-09-14T11:45:29.344Z,6.88
2022-09-14T11:50:33.338Z,5.10
2022-09-14T11:53:05.428Z,6.50
2022-09-14T11:55:33.753Z,10.88
2022-09-14T11:58:07.093Z,10.68
2022-09-14T12:01:01.698Z,6.97
2022-09-14T12:04:00.361Z,8.02
2022-09-14T12:06:51.317Z,9.55
2022-09-14T12:09:43.644Z,10.93
2022-09-14T12:12:32.989Z,8.05
2022-09-14T12:15:03.663Z,8.23
2022-09-14T12:17:40.038Z,7.50
2022-09-14T12:20:30.594Z,6.88
2022-09-14T12:23:20.824Z,10.85
2022-09-14T12:26:13.428Z,7.80
2022-09-14T12:31:36.061Z,8.50
2022-09-14T12:34:16.330Z,6.45
2022-09-14T12:37:08.672Z,5.75
2022-09-14T12:39:39.365Z,8.80
2022-09-14T12:42:28.878Z,10.50
2022-09-14T12:44:57.123Z,7.75
2022-09-14T12:47:52.404Z,11.70
2022-09-14T12:50:23.021Z,7.60
2022-09-14T12:53:12.444Z,6.18
2022-09-14T12:55:46.231Z,8.20
2022-09-14T12:58:24.439Z,7.57
2022-09-14T13:00:59.749Z,7.72
2022-09-14T13:03:49.697Z,9.32
2022-09-14T13:06:18.736Z,9.30
2022-09-14T13:08:48.800Z,6.07
2022-09-14T13:11:22.546Z,8.55
2022-09-14T13:13:51.073Z,6.22
2022-09-14T13:16:26.199Z,4.70
2022-09-14T13:19:06.437Z,7.43
2022-09-14T13:21:37.059Z,6.18
2022-09-14T13:24:19.335Z,7.63
2022-09-14T13:26:47.415Z,7.13
2022-09-14T13:29:15.951Z,6.18
2022-09-14T13:31:46.216Z,11.13
2022-09-14T13:34:22.022Z,5.97
2022-09-14T13:36:50.515Z,5.65
2022-09-14T13:39:25.775Z,9.32
2022-09-14T13:41:54.551Z,7.88
2022-09-14T13:44:25.528Z,6.35
2022-09-14T13:46:54.130Z,9.25
2022-09-14T13:49:24.060Z,7.65
2022-09-14T13:51:52.242Z,8.88
2022-09-14T13:54:29.601Z,4.75
2022-09-14T13:57:14.194Z,10.52
2022-09-14T14:00:05.456Z,7.25
2022-09-14T14:02:36.781Z,9.13
2022-09-14T14:05:07.671Z,6.60
2022-09-14T14:07:36.508Z,6.63
2022-09-14T14:10:04.867Z,7.47
2022-09-14T14:12:36.897Z,10.50
2022-09-14T14:15:09.411Z,9.32
2022-09-14T14:17:39.447Z,6.78
2022-09-14T14:20:31.128Z,8.93
2022-09-14T14:23:06.938Z,8.60
2022-09-14T14:25:40.989Z,6.18
2022-09-14T14:28:17.918Z,8.18
2022-09-14T14:30:50.558Z,7.70
2022-09-14T14:33:20.025Z,8.52
2022-09-14T14:35:51.947Z,7.03
2022-09-14T14:38:20.503Z,6.55
2022-09-14T14:40:49.001Z,7.30
2022-09-14T14:43:19.917Z,6.53
2022-09-14T14:45:49.136Z,8.35
2022-09-14T14:48:18.325Z,8.23
2022-09-14T14:50:47.498Z,7.72
2022-09-14T14:53:17.631Z,8.38
2022-09-14T14:55:46.304Z,12.88
2022-09-14T14:58:17.350Z,6.95
2022-09-14T15:00:49.364Z,6.47
2022-09-14T15:03:22.001Z,5.30
2022-09-14T15:05:50.630Z,9.93
2022-09-14T15:08:23.219Z,11.85
2022-09-14T15:10:57.126Z,7.15
2022-09-14T15:13:26.772Z,12.07
2022-09-14T15:15:55.276Z,9.90
2022-09-14T15:18:23.468Z,7.10
2022-09-14T15:20:54.999Z,8.32
2022-09-14T15:23:25.951Z,9.02
2022-09-14T15:25:54.556Z,8.57
2022-09-14T15:28:23.253Z,11.65
2022-09-14T15:30:51.923Z,11.85
2022-09-14T15:33:21.693Z,10.10
2022-09-14T15:35:56.116Z,10.90
2022-09-14T15:38:25.707Z,8.15
2022-09-14T15:40:54.007Z,9.77
2022-09-14T15:43:22.380Z,8.35
2022-09-14T15:45:50.589Z,6.10
2022-09-14T15:48:24.890Z,6.55
2022-09-14T15:50:54.179Z,9.07
2022-09-14T15:53:22.209Z,10.15
2022-09-14T15:55:52.830Z,8.57
2022-09-14T15:58:21.327Z,10.13
2022-09-14T16:00:49.962Z,6.95
2022-09-14T16:03:18.680Z,11.88
2022-09-14T16:05:47.137Z,6.22
2022-09-14T16:08:16.316Z,4.80
2022-09-14T16:10:44.394Z,13.50
2022-09-14T16:13:13.787Z,6.22
2022-09-14T16:15:42.511Z,7.20
2022-09-14T16:18:10.634Z,8.10
2022-09-14T16:20:39.129Z,7.35
2022-09-14T16:23:07.724Z,6.10
2022-09-14T16:25:40.984Z,10.45
2022-09-14T16:28:09.150Z,8.80
2022-09-14T16:30:38.556Z,4.85
2022-09-14T16:33:07.940Z,5.97
2022-09-14T16:35:36.123Z,10.90
2022-09-14T16:38:05.327Z,11.07
2022-09-14T16:40:34.158Z,9.90
2022-09-14T16:43:02.467Z,8.73
2022-09-14T16:45:30.686Z,6.10
2022-09-14T16:48:00.211Z,5.00
2022-09-14T16:50:28.482Z,11.50
2022-09-14T16:52:56.439Z,7.32
2022-09-14T16:55:24.622Z,10.25
2022-09-14T16:57:53.182Z,5.63
2022-09-14T17:00:21.460Z,8.85
2022-09-14T17:02:53.310Z,8.75
2022-09-14T17:05:26.508Z,7.18
2022-09-14T17:07:59.267Z,8.00
2022-09-14T17:10:27.433Z,8.07
2022-09-14T17:12:55.984Z,7.63
2022-09-14T17:15:24.038Z,7.18
2022-09-14T17:17:52.447Z,8.45
2022-09-14T17:20:20.698Z,10.80
2022-09-14T17:22:50.337Z,7.97
2022-09-14T17:25:18.821Z,7.07
2022-09-14T17:27:47.197Z,12.15
2022-09-14T17:30:15.935Z,5.60
2022-09-14T17:32:44.131Z,16.25
2022-09-14T17:35:12.159Z,7.00
2022-09-14T17:37:40.559Z,8.55
2022-09-14T17:40:11.335Z,14.18
2022-09-14T17:42:39.776Z,7.72
2022-09-14T17:45:10.471Z,10.00
2022-09-14T17:47:38.704Z,9.90
2022-09-14T17:50:09.834Z,10.32
2022-09-14T17:52:39.598Z,8.82
2022-09-14T17:55:09.660Z,12.65
2022-09-14T17:57:40.133Z,6.95
2022-09-14T18:00:10.343Z,9.98
2022-09-14T18:02:38.719Z,6.82
2022-09-14T18:05:07.740Z,7.93
2022-09-14T18:07:38.249Z,8.55
2022-09-14T18:10:08.103Z,14.35
2022-09-14T18:12:39.857Z,14.45
2022-09-14T18:15:15.432Z,8.98
2022-09-14T18:17:45.934Z,7.95
2022-09-14T18:20:15.587Z,8.63
2022-09-14T18:22:44.028Z,8.02
2022-09-14T18:25:15.250Z,9.88
2022-09-14T18:27:43.562Z,9.13
2022-09-14T18:30:14.659Z,9.27
2022-09-14T18:32:42.728Z,9.55
2022-09-14T18:35:13.034Z,10.05
2022-09-14T18:37:43.526Z,7.45
2022-09-14T18:40:12.037Z,7.85
2022-09-14T18:42:40.543Z,9.02
2022-09-14T18:45:10.116Z,5.75
2022-09-14T18:47:40.344Z,9.07
2022-09-14T18:50:09.310Z,8.90
2022-09-14T18:52:37.791Z,9.63
2022-09-14T18:55:06.877Z,8.65
2022-09-14T18:57:35.428Z,6.82
2022-09-14T19:00:05.309Z,11.10
2022-09-14T19:02:33.434Z,7.32
2022-09-14T19:05:05.690Z,10.40
2022-09-14T19:07:36.809Z,7.47
2022-09-14T19:10:10.912Z,6.75
2022-09-14T19:12:40.715Z,15.68
2022-09-14T19:15:09.731Z,13.15
2022-09-14T19:17:38.165Z,8.80
2022-09-14T19:20:09.214Z,9.60
2022-09-14T19:22:38.023Z,11.23
2022-09-14T19:25:10.413Z,7.55
2022-09-14T19:30:11.192Z,10.02
2022-09-14T19:35:09.521Z,11.48
2022-09-14T19:37:39.678Z,9.68
2022-09-14T19:40:09.850Z,12.90
2022-09-14T19:42:39.524Z,9.23
2022-09-14T19:45:09.183Z,9.02
2022-09-14T19:47:37.778Z,11.38
2022-09-14T19:50:07.113Z,10.70
2022-09-14T19:52:36.620Z,7.45
2022-09-14T19:55:09.002Z,9.95
2022-09-14T20:00:15.154Z,7.40
2022-09-14T20:02:46.770Z,8.63
2022-09-14T20:05:15.972Z,10.95
2022-09-14T20:07:47.729Z,14.50
2022-09-14T20:10:18.220Z,10.27
2022-09-14T20:12:47.223Z,11.23
2022-09-14T20:15:15.430Z,13.48
2022-09-14T20:17:43.825Z,8.70
2022-09-14T20:20:15.757Z,7.32
2022-09-14T20:22:46.385Z,9.93
2022-09-14T20:25:16.940Z,13.60
2022-09-14T20:27:46.693Z,7.25
2022-09-14T20:30:18.404Z,9.18
2022-09-14T20:32:47.562Z,12.27
2022-09-14T20:35:15.732Z,7.93
2022-09-14T20:37:45.215Z,7.45
2022-09-14T20:40:14.460Z,18.90
2022-09-14T20:42:44.292Z,13.45
2022-09-14T20:45:12.601Z,10.98
2022-09-14T20:47:40.897Z,12.60
2022-09-14T20:50:09.563Z,9.63
2022-09-14T20:52:37.874Z,10.65
2022-09-14T20:55:10.526Z,8.18
2022-09-14T20:57:42.766Z,9.63
2022-09-14T21:00:12.672Z,16.75
2022-09-14T21:02:40.946Z,12.93
2022-09-14T21:05:10.460Z,12.02
2022-09-14T21:07:38.613Z,14.35
2022-09-14T21:10:09.877Z,12.95
2022-09-14T21:12:37.982Z,12.52
2022-09-14T21:15:07.351Z,11.90
2022-09-14T21:17:36.322Z,11.90
2022-09-14T21:20:05.715Z,10.45
2022-09-14T21:22:35.837Z,7.07
2022-09-14T21:25:06.663Z,7.32
2022-09-14T21:27:36.345Z,11.02
2022-09-14T21:30:05.028Z,9.15
2022-09-14T21:32:33.379Z,11.77
2022-09-14T21:35:04.416Z,13.57
2022-09-14T21:37:32.660Z,20.25
2022-09-14T21:40:00.867Z,13.32
2022-09-14T21:42:30.399Z,15.00
2022-09-14T21:45:00.667Z,15.50
2022-09-14T21:47:29.690Z,19.25
2022-09-14T21:49:57.970Z,14.27
2022-09-14T21:52:26.112Z,19.65
2022-09-14T21:54:54.517Z,14.02
2022-09-14T21:57:22.670Z,10.30
2022-09-14T21:59:51.005Z,12.07
2022-09-14T22:02:21.698Z,11.00
2022-09-14T22:04:52.111Z,8.65
2022-09-14T22:07:20.532Z,14.30
2022-09-14T22:09:48.730Z,12.68
2022-09-14T22:12:18.202Z,13.00
2022-09-14T22:14:46.493Z,9.38
2022-09-14T22:17:14.791Z,8.75
2022-09-14T22:19:45.122Z,7.95
2022-09-14T22:22:13.445Z,13.48
2022-09-14T22:24:42.699Z,12.05
2022-09-14T22:27:11.653Z,8.02
2022-09-14T22:29:41.028Z,13.13
2022-09-14T22:32:11.878Z,20.77
2022-09-14T22:34:40.850Z,16.98
2022-09-14T22:37:10.299Z,13.35
2022-09-14T22:39:39.010Z,13.95
2022-09-14T22:42:08.196Z,13.00
2022-09-14T22:44:36.965Z,14.80
2022-09-14T22:47:06.716Z,16.63
2022-09-14T22:49:35.111Z,16.98
2022-09-14T22:52:03.692Z,16.50
2022-09-14T22:54:33.336Z,20.60
2022-09-14T22:57:01.922Z,17.33
2022-09-14T22:59:30.244Z,13.82
2022-09-14T23:01:59.325Z,15.88
2022-09-14T23:04:28.214Z,15.13
2022-09-14T23:06:56.504Z,16.30
2022-09-14T23:09:24.653Z,16.23
2022-09-14T23:11:55.455Z,17.50
2022-09-14T23:14:24.139Z,17.33
2022-09-14T23:16:52.618Z,19.50
2022-09-14T23:19:20.970Z,23.15
2022-09-14T23:21:49.592Z,19.63
2022-09-14T23:24:17.992Z,17.30
2022-09-14T23:26:46.524Z,16.83
2022-09-14T23:29:19.844Z,20.58
2022-09-14T23:31:48.970Z,20.67
2022-09-14T23:34:18.864Z,17.38
2022-09-14T23:36:47.047Z,15.50
2022-09-14T23:39:15.260Z,12.75
2022-09-14T23:41:43.825Z,23.58
2022-09-14T23:44:13.890Z,18.92
2022-09-14T23:46:43.782Z,17.80
2022-09-14T23:49:12.663Z,21.10
2022-09-14T23:51:41.290Z,22.60
2022-09-14T23:54:09.741Z,19.92
2022-09-14T23:56:38.788Z,25.38
2022-09-14T23:59:10.395Z,20.25
